Terminal Aerodrome Forecast
Issued by NWS Duluth, MN

Home | Current Version | Previous Version | Text Only | Print | Product List | Glossary On
Versions: 1 2 3 4 5 6 7 8 9 10 11 12 13 14 15
000
FTUS43 KDLH 301000 AAA
TAFDLH
TAF AMD
KDLH 301023Z 3010/3106 35009KT P6SM FEW030
     FM301500 02013KT P6SM FEW035
     FM302000 07010KT P6SM SKC=

USA.gov is the U.S. government's official web portal to all federal, state and local government web resources and services.